PBD569 ULLI-USPP
Flight info
| Callsign | PBD569 |
|---|---|
| Flight time | 2h 0m |
| Altitude | 37000 |
| Route | KERIS1A KERIS L255 DOKOD M61 SUMOM SUMOM1F |
| Aircraft | B738/M-SDE2E3FGHIRWXY/LB1 |
Departure
| Time | 2026-04-23 17:00 |
|---|---|
| Airport | Pulkovo Airport (ULLI) |
Arrival
| Time | 2026-04-23 19:00 |
|---|---|
| Airport | Perm International Airport (USPP) |
| Time | Latitude | Longitude | Altitude | Speed | Heading |
|---|---|---|---|---|---|
| 2026-04-23 16:11 | 59.79805 | 30.26299 | 86 ft | 0 kts | 287° |
| 2026-04-23 16:47 | 59.79807 | 30.26280 | 86 ft | 4 kts | 285° |
| 2026-04-23 16:48 | 59.79837 | 30.26190 | 86 ft | 11 kts | 342° |
| 2026-04-23 16:48 | 59.79934 | 30.26229 | 89 ft | 18 kts | 16° |
| 2026-04-23 16:48 | 59.80060 | 30.26301 | 86 ft | 19 kts | 17° |
| 2026-04-23 16:48 | 59.80181 | 30.26370 | 89 ft | 17 kts | 17° |
| 2026-04-23 16:49 | 59.80254 | 30.26413 | 85 ft | 16 kts | 17° |
| 2026-04-23 16:49 | 59.80376 | 30.26463 | 84 ft | 11 kts | 11° |
| 2026-04-23 16:49 | 59.80432 | 30.26535 | 84 ft | 1 kts | 68° |
| 2026-04-23 16:49 | 59.80434 | 30.26595 | 85 ft | 8 kts | 97° |
| 2026-04-23 16:50 | 59.80408 | 30.26771 | 87 ft | 16 kts | 107° |
| 2026-04-23 16:50 | 59.80378 | 30.26969 | 85 ft | 13 kts | 107° |
| 2026-04-23 16:50 | 59.80363 | 30.27075 | 82 ft | 11 kts | 107° |
| 2026-04-23 16:50 | 59.80343 | 30.27204 | 86 ft | 9 kts | 107° |
| 2026-04-23 16:51 | 59.80299 | 30.27512 | 85 ft | 25 kts | 107° |
| 2026-04-23 16:51 | 59.80267 | 30.27724 | 81 ft | 22 kts | 107° |
| 2026-04-23 16:51 | 59.80223 | 30.28015 | 77 ft | 22 kts | 106° |
| 2026-04-23 16:51 | 59.80156 | 30.28463 | 73 ft | 30 kts | 106° |
| 2026-04-23 16:52 | 59.80118 | 30.28710 | 75 ft | 23 kts | 107° |
| 2026-04-23 16:52 | 59.80074 | 30.29010 | 79 ft | 22 kts | 107° |
| 2026-04-23 16:52 | 59.80031 | 30.29298 | 76 ft | 21 kts | 107° |
| 2026-04-23 16:52 | 59.79995 | 30.29543 | 75 ft | 17 kts | 105° |
| 2026-04-23 16:53 | 59.79978 | 30.29660 | 78 ft | 6 kts | 107° |
| 2026-04-23 16:53 | 59.79965 | 30.29745 | 78 ft | 6 kts | 107° |
| 2026-04-23 16:53 | 59.79958 | 30.29788 | 78 ft | 0 kts | 107° |
| 2026-04-23 16:54 | 59.79950 | 30.29881 | 77 ft | 15 kts | 100° |
| 2026-04-23 16:55 | 59.79946 | 30.29919 | 74 ft | 0 kts | 101° |
| 2026-04-23 16:55 | 59.79944 | 30.29958 | 70 ft | 7 kts | 95° |
| 2026-04-23 16:55 | 59.79944 | 30.29991 | 70 ft | 0 kts | 83° |
| 2026-04-23 16:56 | 59.79944 | 30.29993 | 70 ft | 0 kts | 83° |
| 2026-04-23 16:56 | 59.79944 | 30.29995 | 70 ft | 1 kts | 83° |
| 2026-04-23 16:56 | 59.79953 | 30.30043 | 75 ft | 3 kts | 63° |
| 2026-04-23 16:57 | 59.79974 | 30.30098 | 72 ft | 9 kts | 48° |
| 2026-04-23 16:57 | 59.79985 | 30.30121 | 77 ft | 0 kts | 48° |
| 2026-04-23 16:57 | 59.79992 | 30.30137 | 71 ft | 3 kts | 48° |
| 2026-04-23 16:58 | 59.80017 | 30.30190 | 70 ft | 9 kts | 47° |
| 2026-04-23 16:58 | 59.80094 | 30.30275 | 71 ft | 17 kts | 351° |
| 2026-04-23 16:58 | 59.80117 | 30.30244 | 73 ft | 1 kts | 303° |
| 2026-04-23 16:58 | 59.80122 | 30.30216 | 74 ft | 0 kts | 287° |
| 2026-04-23 16:59 | 59.80142 | 30.30086 | 77 ft | 42 kts | 287° |
| 2026-04-23 16:59 | 59.80310 | 30.28967 | 75 ft | 126 kts | 287° |
| 2026-04-23 17:00 | 59.80612 | 30.26871 | 392 ft | 170 kts | 288° |
| 2026-04-23 17:00 | 59.80912 | 30.24679 | 1651 ft | 164 kts | 290° |
| 2026-04-23 17:00 | 59.81244 | 30.22479 | 2572 ft | 177 kts | 291° |
| 2026-04-23 17:00 | 59.81637 | 30.19943 | 2889 ft | 207 kts | 290° |
| 2026-04-23 17:01 | 59.82072 | 30.17076 | 3335 ft | 223 kts | 290° |
| 2026-04-23 17:01 | 59.82514 | 30.14114 | 3484 ft | 223 kts | 290° |
| 2026-04-23 17:01 | 59.82951 | 30.11155 | 3521 ft | 223 kts | 290° |
| 2026-04-23 17:01 | 59.83375 | 30.08266 | 3652 ft | 213 kts | 290° |
| 2026-04-23 17:02 | 59.83787 | 30.05453 | 4162 ft | 212 kts | 290° |
| 2026-04-23 17:02 | 59.84204 | 30.02628 | 4910 ft | 213 kts | 291° |
| 2026-04-23 17:02 | 59.84980 | 30.00197 | 5622 ft | 209 kts | 324° |
| 2026-04-23 17:02 | 59.86066 | 29.99194 | 6222 ft | 207 kts | 349° |
| 2026-04-23 17:03 | 59.87534 | 29.99281 | 6690 ft | 219 kts | 14° |
| 2026-04-23 17:03 | 59.89023 | 30.00139 | 7309 ft | 225 kts | 15° |
| 2026-04-23 17:03 | 59.90529 | 30.01019 | 8067 ft | 226 kts | 15° |
| 2026-04-23 17:03 | 59.91994 | 30.02127 | 8602 ft | 228 kts | 31° |
| 2026-04-23 17:04 | 59.93072 | 30.04484 | 8801 ft | 239 kts | 57° |
| 2026-04-23 17:04 | 59.93511 | 30.07761 | 9090 ft | 254 kts | 83° |
| 2026-04-23 17:04 | 59.93220 | 30.11306 | 9952 ft | 263 kts | 99° |
| 2026-04-23 17:04 | 59.92695 | 30.14823 | 10807 ft | 265 kts | 99° |
| 2026-04-23 17:05 | 59.92157 | 30.18352 | 11573 ft | 270 kts | 100° |
| 2026-04-23 17:05 | 59.91440 | 30.21968 | 11989 ft | 295 kts | 107° |
| 2026-04-23 17:05 | 59.90572 | 30.25860 | 12208 ft | 317 kts | 101° |
| 2026-04-23 17:05 | 59.90188 | 30.30192 | 12409 ft | 330 kts | 86° |
| 2026-04-23 17:06 | 59.90060 | 30.34918 | 12616 ft | 353 kts | 85° |
| 2026-04-23 17:06 | 59.89946 | 30.39925 | 13009 ft | 369 kts | 86° |
| 2026-04-23 17:06 | 59.89808 | 30.45146 | 13752 ft | 374 kts | 86° |
| 2026-04-23 17:06 | 59.89651 | 30.50264 | 14444 ft | 377 kts | 86° |
| 2026-04-23 17:07 | 59.89475 | 30.55519 | 15117 ft | 382 kts | 87° |
| 2026-04-23 17:07 | 59.89311 | 30.60816 | 15748 ft | 386 kts | 85° |
| 2026-04-23 17:07 | 59.89219 | 30.66191 | 16398 ft | 389 kts | 84° |
| 2026-04-23 17:07 | 59.89157 | 30.71606 | 17047 ft | 393 kts | 84° |
| 2026-04-23 17:08 | 59.89100 | 30.77092 | 17677 ft | 398 kts | 83° |
| 2026-04-23 17:08 | 59.89036 | 30.82630 | 18272 ft | 402 kts | 83° |
| 2026-04-23 17:08 | 59.88963 | 30.88221 | 18826 ft | 406 kts | 83° |
| 2026-04-23 17:08 | 59.88881 | 30.93854 | 19405 ft | 408 kts | 83° |
| 2026-04-23 17:09 | 59.88792 | 30.99522 | 19968 ft | 412 kts | 83° |
| 2026-04-23 17:09 | 59.88702 | 31.04978 | 20476 ft | 415 kts | 83° |
| 2026-04-23 17:09 | 59.88603 | 31.10736 | 21017 ft | 418 kts | 83° |
| 2026-04-23 17:09 | 59.88501 | 31.16478 | 21602 ft | 421 kts | 82° |
| 2026-04-23 17:10 | 59.88394 | 31.22300 | 22214 ft | 422 kts | 82° |
| 2026-04-23 17:10 | 59.88284 | 31.28144 | 22707 ft | 425 kts | 82° |
| 2026-04-23 17:10 | 59.88172 | 31.34086 | 23151 ft | 430 kts | 82° |
| 2026-04-23 17:10 | 59.88056 | 31.40053 | 23577 ft | 433 kts | 82° |
| 2026-04-23 17:11 | 59.87936 | 31.46063 | 23981 ft | 435 kts | 82° |
| 2026-04-23 17:11 | 59.87812 | 31.52097 | 24379 ft | 438 kts | 82° |
| 2026-04-23 17:11 | 59.87684 | 31.58182 | 24764 ft | 441 kts | 82° |
| 2026-04-23 17:11 | 59.87553 | 31.64317 | 25127 ft | 444 kts | 82° |
| 2026-04-23 17:12 | 59.87419 | 31.70414 | 25478 ft | 447 kts | 82° |
| 2026-04-23 17:12 | 59.87281 | 31.76624 | 25850 ft | 450 kts | 82° |
| 2026-04-23 17:12 | 59.87139 | 31.82839 | 26239 ft | 452 kts | 82° |
| 2026-04-23 17:12 | 59.86992 | 31.89121 | 26604 ft | 454 kts | 82° |
| 2026-04-23 17:13 | 59.86842 | 31.95426 | 27044 ft | 456 kts | 83° |
| 2026-04-23 17:13 | 59.86695 | 32.01441 | 27385 ft | 457 kts | 83° |
| 2026-04-23 17:13 | 59.86538 | 32.07801 | 27675 ft | 460 kts | 83° |
| 2026-04-23 17:13 | 59.86378 | 32.14189 | 27955 ft | 464 kts | 83° |
| 2026-04-23 17:14 | 59.86213 | 32.20614 | 28264 ft | 465 kts | 83° |
| 2026-04-23 17:14 | 59.86043 | 32.27050 | 28712 ft | 464 kts | 83° |
| 2026-04-23 17:14 | 59.85871 | 32.33384 | 29199 ft | 463 kts | 83° |
| 2026-04-23 17:14 | 59.85695 | 32.39773 | 29637 ft | 462 kts | 83° |
| 2026-04-23 17:15 | 59.85518 | 32.46162 | 29981 ft | 463 kts | 83° |
| 2026-04-23 17:15 | 59.85339 | 32.52558 | 30281 ft | 463 kts | 83° |
| 2026-04-23 17:15 | 59.85156 | 32.58961 | 30606 ft | 463 kts | 83° |
| 2026-04-23 17:15 | 59.84970 | 32.65361 | 30986 ft | 463 kts | 84° |
| 2026-04-23 17:16 | 59.84781 | 32.71752 | 31302 ft | 463 kts | 84° |
| 2026-04-23 17:16 | 59.84588 | 32.78163 | 31624 ft | 463 kts | 85° |
| 2026-04-23 17:16 | 59.84393 | 32.84549 | 31947 ft | 463 kts | 85° |
| 2026-04-23 17:16 | 59.84194 | 32.90943 | 32255 ft | 463 kts | 85° |
| 2026-04-23 17:17 | 59.83993 | 32.97342 | 32571 ft | 463 kts | 85° |
| 2026-04-23 17:17 | 59.83795 | 33.03531 | 32879 ft | 463 kts | 86° |
| 2026-04-23 17:17 | 59.83658 | 33.07763 | 33097 ft | 463 kts | 86° |
| 2026-04-23 17:17 | 59.83376 | 33.16310 | 33511 ft | 463 kts | 86° |
| 2026-04-23 17:18 | 59.83235 | 33.20549 | 33650 ft | 465 kts | 86° |
| 2026-04-23 17:18 | 59.83150 | 33.23093 | 33732 ft | 465 kts | 86° |
| 2026-04-23 17:18 | 59.82933 | 33.29519 | 33963 ft | 466 kts | 86° |
| 2026-04-23 17:19 | 59.82711 | 33.35929 | 34236 ft | 465 kts | 87° |
| 2026-04-23 17:19 | 59.82487 | 33.42333 | 34518 ft | 464 kts | 88° |
| 2026-04-23 17:19 | 59.82259 | 33.48764 | 34686 ft | 466 kts | 88° |
| 2026-04-23 17:19 | 59.82029 | 33.55193 | 34906 ft | 467 kts | 88° |
| 2026-04-23 17:20 | 59.81794 | 33.61623 | 35157 ft | 466 kts | 88° |
| 2026-04-23 17:20 | 59.81316 | 33.74442 | 35626 ft | 466 kts | 88° |
| 2026-04-23 17:21 | 59.80826 | 33.87287 | 36061 ft | 466 kts | 88° |
| 2026-04-23 17:21 | 59.80580 | 33.93623 | 36297 ft | 465 kts | 88° |
| 2026-04-23 17:21 | 59.80080 | 34.06253 | 36692 ft | 466 kts | 88° |
| 2026-04-23 17:22 | 59.79292 | 34.25562 | 36722 ft | 466 kts | 89° |
| 2026-04-23 17:23 | 59.78478 | 34.44723 | 36712 ft | 462 kts | 89° |
| 2026-04-23 17:24 | 59.77646 | 34.63738 | 36715 ft | 460 kts | 89° |
| 2026-04-23 17:24 | 59.76791 | 34.82649 | 36713 ft | 461 kts | 89° |
| 2026-04-23 17:25 | 59.75913 | 35.01481 | 36713 ft | 464 kts | 90° |
| 2026-04-23 17:26 | 59.74675 | 35.27070 | 36696 ft | 468 kts | 90° |
| 2026-04-23 17:27 | 59.73764 | 35.46284 | 36691 ft | 469 kts | 89° |
| 2026-04-23 17:27 | 59.73292 | 35.59168 | 36686 ft | 470 kts | 89° |
| 2026-04-23 17:28 | 59.72817 | 35.72177 | 36688 ft | 475 kts | 90° |
| 2026-04-23 17:28 | 59.72305 | 35.85278 | 36678 ft | 478 kts | 90° |
| 2026-04-23 17:29 | 59.71768 | 35.98407 | 36681 ft | 479 kts | 90° |
| 2026-04-23 17:30 | 59.71039 | 36.15731 | 36667 ft | 479 kts | 90° |
| 2026-04-23 17:30 | 59.70092 | 36.37549 | 36666 ft | 478 kts | 90° |
| 2026-04-23 17:31 | 59.69507 | 36.50633 | 36657 ft | 477 kts | 91° |
| 2026-04-23 17:31 | 59.68909 | 36.63730 | 36655 ft | 477 kts | 91° |
| 2026-04-23 17:32 | 59.68285 | 36.76798 | 36646 ft | 476 kts | 91° |
| 2026-04-23 17:32 | 59.67642 | 36.89839 | 36649 ft | 476 kts | 91° |
| 2026-04-23 17:33 | 59.66998 | 37.02685 | 36635 ft | 476 kts | 91° |
| 2026-04-23 17:33 | 59.66334 | 37.15714 | 36655 ft | 476 kts | 92° |
| 2026-04-23 17:34 | 59.65657 | 37.28741 | 36634 ft | 477 kts | 93° |
| 2026-04-23 17:35 | 59.64615 | 37.48329 | 36620 ft | 478 kts | 93° |
| 2026-04-23 17:35 | 59.63547 | 37.67839 | 36606 ft | 478 kts | 93° |
| 2026-04-23 17:36 | 59.62817 | 37.80907 | 36605 ft | 478 kts | 93° |
| 2026-04-23 17:36 | 59.62076 | 37.93949 | 36610 ft | 478 kts | 94° |
| 2026-04-23 17:37 | 59.61460 | 38.04710 | 36599 ft | 478 kts | 94° |
| 2026-04-23 17:38 | 59.60323 | 38.24293 | 36585 ft | 478 kts | 94° |
| 2026-04-23 17:38 | 59.59555 | 38.37259 | 36585 ft | 478 kts | 94° |
| 2026-04-23 17:39 | 59.58767 | 38.50312 | 36590 ft | 479 kts | 95° |
| 2026-04-23 17:39 | 59.57967 | 38.63346 | 36578 ft | 479 kts | 95° |
| 2026-04-23 17:40 | 59.57152 | 38.76400 | 36580 ft | 479 kts | 95° |
| 2026-04-23 17:40 | 59.56325 | 38.89438 | 36579 ft | 479 kts | 96° |
| 2026-04-23 17:41 | 59.55500 | 39.02245 | 36571 ft | 479 kts | 96° |
| 2026-04-23 17:41 | 59.54221 | 39.21710 | 36565 ft | 479 kts | 96° |
| 2026-04-23 17:42 | 59.52902 | 39.41313 | 36568 ft | 479 kts | 96° |
| 2026-04-23 17:43 | 59.52016 | 39.54248 | 36572 ft | 480 kts | 97° |
| 2026-04-23 17:43 | 59.51111 | 39.67261 | 36561 ft | 480 kts | 97° |
| 2026-04-23 17:44 | 59.50193 | 39.80309 | 36548 ft | 481 kts | 96° |
| 2026-04-23 17:44 | 59.49220 | 39.99955 | 36546 ft | 480 kts | 93° |
| 2026-04-23 17:45 | 59.48556 | 40.19414 | 36543 ft | 481 kts | 94° |
| 2026-04-23 17:46 | 59.47778 | 40.38963 | 36540 ft | 482 kts | 94° |
| 2026-04-23 17:46 | 59.47229 | 40.52114 | 36541 ft | 482 kts | 94° |
| 2026-04-23 17:47 | 59.46672 | 40.65257 | 36527 ft | 483 kts | 94° |
| 2026-04-23 17:48 | 59.45800 | 40.84964 | 36533 ft | 482 kts | 95° |
| 2026-04-23 17:48 | 59.45200 | 40.98128 | 36520 ft | 483 kts | 95° |
| 2026-04-23 17:49 | 59.44603 | 41.10961 | 36526 ft | 483 kts | 95° |
| 2026-04-23 17:49 | 59.43979 | 41.24099 | 36522 ft | 484 kts | 95° |
| 2026-04-23 17:50 | 59.43341 | 41.37245 | 36522 ft | 484 kts | 95° |
| 2026-04-23 17:50 | 59.42359 | 41.56976 | 36515 ft | 484 kts | 96° |
| 2026-04-23 17:51 | 59.41688 | 41.70128 | 36517 ft | 484 kts | 96° |
| 2026-04-23 17:52 | 59.40656 | 41.89851 | 36511 ft | 484 kts | 96° |
| 2026-04-23 17:52 | 59.39606 | 42.09353 | 36510 ft | 484 kts | 96° |
| 2026-04-23 17:53 | 59.38518 | 42.29051 | 36514 ft | 484 kts | 96° |
| 2026-04-23 17:54 | 59.37761 | 42.42154 | 36507 ft | 484 kts | 97° |
| 2026-04-23 17:54 | 59.36560 | 42.61829 | 36502 ft | 484 kts | 97° |
| 2026-04-23 17:55 | 59.35334 | 42.81518 | 36491 ft | 485 kts | 98° |
| 2026-04-23 17:56 | 59.34508 | 42.94561 | 36493 ft | 485 kts | 97° |
| 2026-04-23 17:56 | 59.33247 | 43.14077 | 36483 ft | 486 kts | 98° |
| 2026-04-23 17:57 | 59.32380 | 43.27209 | 36477 ft | 486 kts | 98° |
| 2026-04-23 17:58 | 59.31060 | 43.46850 | 36466 ft | 485 kts | 98° |
| 2026-04-23 17:58 | 59.30164 | 43.59931 | 36471 ft | 484 kts | 98° |
| 2026-04-23 17:59 | 59.29256 | 43.72988 | 36468 ft | 484 kts | 98° |
| 2026-04-23 17:59 | 59.28336 | 43.86018 | 36457 ft | 483 kts | 98° |
| 2026-04-23 18:00 | 59.27404 | 43.99044 | 36455 ft | 483 kts | 99° |
| 2026-04-23 18:00 | 59.26483 | 44.11748 | 36446 ft | 483 kts | 99° |
| 2026-04-23 18:01 | 59.25560 | 44.24836 | 36446 ft | 483 kts | 98° |
| 2026-04-23 18:01 | 59.24710 | 44.37780 | 36436 ft | 483 kts | 98° |
| 2026-04-23 18:02 | 59.23989 | 44.48673 | 36440 ft | 483 kts | 98° |
| 2026-04-23 18:02 | 59.22958 | 44.63797 | 36435 ft | 483 kts | 98° |
| 2026-04-23 18:03 | 59.22053 | 44.76781 | 36430 ft | 483 kts | 99° |
| 2026-04-23 18:03 | 59.21133 | 44.89785 | 36431 ft | 483 kts | 99° |
| 2026-04-23 18:04 | 59.20215 | 45.02588 | 36428 ft | 483 kts | 99° |
| 2026-04-23 18:04 | 59.19272 | 45.15566 | 36423 ft | 483 kts | 99° |
| 2026-04-23 18:05 | 59.18301 | 45.28552 | 36427 ft | 483 kts | 101° |
| 2026-04-23 18:05 | 59.16986 | 45.41350 | 36432 ft | 482 kts | 104° |
| 2026-04-23 18:06 | 59.15517 | 45.54034 | 36424 ft | 483 kts | 104° |
| 2026-04-23 18:06 | 59.14108 | 45.66269 | 36425 ft | 482 kts | 104° |
| 2026-04-23 18:07 | 59.12660 | 45.79022 | 36433 ft | 482 kts | 104° |
| 2026-04-23 18:07 | 59.11209 | 45.91800 | 36437 ft | 482 kts | 104° |
| 2026-04-23 18:08 | 59.10019 | 46.02204 | 36432 ft | 482 kts | 104° |
| 2026-04-23 18:08 | 59.08297 | 46.17092 | 36442 ft | 482 kts | 104° |
| 2026-04-23 18:09 | 59.06810 | 46.29809 | 36437 ft | 482 kts | 104° |
| 2026-04-23 18:09 | 59.05314 | 46.42487 | 36441 ft | 482 kts | 105° |
| 2026-04-23 18:10 | 59.03808 | 46.55130 | 36449 ft | 482 kts | 105° |
| 2026-04-23 18:10 | 59.02274 | 46.67897 | 36445 ft | 483 kts | 105° |
| 2026-04-23 18:11 | 59.00746 | 46.80500 | 36446 ft | 483 kts | 105° |
| 2026-04-23 18:11 | 58.99196 | 46.93177 | 36451 ft | 483 kts | 105° |
| 2026-04-23 18:12 | 58.97655 | 47.05665 | 36444 ft | 483 kts | 105° |
| 2026-04-23 18:12 | 58.96080 | 47.18321 | 36453 ft | 483 kts | 105° |
| 2026-04-23 18:13 | 58.94495 | 47.30952 | 36457 ft | 483 kts | 105° |
| 2026-04-23 18:13 | 58.92896 | 47.43593 | 36466 ft | 483 kts | 105° |
| 2026-04-23 18:14 | 58.91633 | 47.54111 | 36463 ft | 483 kts | 103° |
| 2026-04-23 18:14 | 58.90128 | 47.69033 | 36470 ft | 484 kts | 103° |
| 2026-04-23 18:15 | 58.88834 | 47.81804 | 36461 ft | 483 kts | 103° |
| 2026-04-23 18:15 | 58.87501 | 47.94459 | 36483 ft | 483 kts | 103° |
| 2026-04-23 18:16 | 58.86159 | 48.06951 | 36485 ft | 483 kts | 104° |
| 2026-04-23 18:16 | 58.84781 | 48.19662 | 36480 ft | 484 kts | 104° |
| 2026-04-23 18:17 | 58.82696 | 48.38717 | 36488 ft | 483 kts | 104° |
| 2026-04-23 18:17 | 58.81290 | 48.51405 | 36473 ft | 483 kts | 104° |
| 2026-04-23 18:18 | 58.79875 | 48.64087 | 36489 ft | 483 kts | 104° |
| 2026-04-23 18:18 | 58.78453 | 48.76753 | 36491 ft | 484 kts | 104° |
| 2026-04-23 18:19 | 58.77020 | 48.89340 | 36505 ft | 484 kts | 104° |
| 2026-04-23 18:19 | 58.75578 | 49.01761 | 36505 ft | 484 kts | 104° |
| 2026-04-23 18:20 | 58.74102 | 49.14387 | 36507 ft | 484 kts | 104° |
| 2026-04-23 18:20 | 58.72613 | 49.27036 | 36508 ft | 484 kts | 104° |
| 2026-04-23 18:21 | 58.71115 | 49.39663 | 36517 ft | 484 kts | 105° |
| 2026-04-23 18:21 | 58.69610 | 49.52274 | 36514 ft | 484 kts | 105° |
| 2026-04-23 18:22 | 58.68091 | 49.64890 | 36521 ft | 484 kts | 105° |
| 2026-04-23 18:22 | 58.66561 | 49.77485 | 36521 ft | 484 kts | 105° |
| 2026-04-23 18:23 | 58.64504 | 49.94246 | 36516 ft | 484 kts | 105° |
| 2026-04-23 18:24 | 58.62184 | 50.12911 | 36521 ft | 484 kts | 105° |
| 2026-04-23 18:25 | 58.59816 | 50.31723 | 36537 ft | 484 kts | 105° |
| 2026-04-23 18:25 | 58.58223 | 50.44253 | 36541 ft | 484 kts | 105° |
| 2026-04-23 18:26 | 58.56601 | 50.56776 | 36550 ft | 484 kts | 106° |
| 2026-04-23 18:26 | 58.54929 | 50.69184 | 36542 ft | 484 kts | 106° |
| 2026-04-23 18:27 | 58.53233 | 50.81648 | 36548 ft | 484 kts | 106° |
| 2026-04-23 18:27 | 58.51531 | 50.94117 | 36554 ft | 484 kts | 106° |
| 2026-04-23 18:28 | 58.49844 | 51.06403 | 36544 ft | 481 kts | 107° |
| 2026-04-23 18:28 | 58.48146 | 51.18678 | 36559 ft | 475 kts | 107° |
| 2026-04-23 18:29 | 58.46450 | 51.30828 | 36564 ft | 473 kts | 107° |
| 2026-04-23 18:29 | 58.44747 | 51.42939 | 36556 ft | 471 kts | 107° |
| 2026-04-23 18:30 | 58.43040 | 51.55007 | 36569 ft | 471 kts | 107° |
| 2026-04-23 18:30 | 58.41380 | 51.67097 | 36575 ft | 472 kts | 104° |
| 2026-04-23 18:31 | 58.40112 | 51.79402 | 36590 ft | 474 kts | 102° |
| 2026-04-23 18:31 | 58.38904 | 51.91696 | 36586 ft | 476 kts | 102° |
| 2026-04-23 18:32 | 58.37638 | 52.03906 | 36591 ft | 477 kts | 103° |
| 2026-04-23 18:32 | 58.36320 | 52.16319 | 36591 ft | 479 kts | 103° |
| 2026-04-23 18:33 | 58.34980 | 52.28776 | 36589 ft | 480 kts | 103° |
| 2026-04-23 18:33 | 58.33630 | 52.41222 | 36592 ft | 480 kts | 103° |
| 2026-04-23 18:34 | 58.32271 | 52.53650 | 36602 ft | 480 kts | 103° |
| 2026-04-23 18:34 | 58.30900 | 52.66076 | 36597 ft | 480 kts | 103° |
| 2026-04-23 18:35 | 58.29516 | 52.78489 | 36601 ft | 479 kts | 103° |
| 2026-04-23 18:35 | 58.28125 | 52.90859 | 36420 ft | 482 kts | 103° |
| 2026-04-23 18:35 | 58.27427 | 52.97018 | 35850 ft | 483 kts | 103° |
| 2026-04-23 18:36 | 58.26737 | 53.03083 | 35261 ft | 480 kts | 103° |
| 2026-04-23 18:36 | 58.26028 | 53.09283 | 34601 ft | 480 kts | 103° |
| 2026-04-23 18:36 | 58.25317 | 53.15471 | 33910 ft | 480 kts | 103° |
| 2026-04-23 18:36 | 58.24601 | 53.21673 | 33104 ft | 481 kts | 103° |
| 2026-04-23 18:37 | 58.23882 | 53.27875 | 32306 ft | 480 kts | 103° |
| 2026-04-23 18:37 | 58.23163 | 53.34052 | 31549 ft | 478 kts | 103° |
| 2026-04-23 18:37 | 58.22444 | 53.40196 | 30772 ft | 478 kts | 103° |
| 2026-04-23 18:37 | 58.21721 | 53.46352 | 29981 ft | 477 kts | 102° |
| 2026-04-23 18:38 | 58.20994 | 53.52506 | 29066 ft | 477 kts | 102° |
| 2026-04-23 18:38 | 58.20267 | 53.58645 | 28133 ft | 476 kts | 102° |
| 2026-04-23 18:38 | 58.19543 | 53.64727 | 27493 ft | 470 kts | 102° |
| 2026-04-23 18:38 | 58.18824 | 53.70737 | 26835 ft | 464 kts | 102° |
| 2026-04-23 18:39 | 58.18114 | 53.76651 | 26223 ft | 458 kts | 103° |
| 2026-04-23 18:39 | 58.17410 | 53.82494 | 25597 ft | 452 kts | 103° |
| 2026-04-23 18:39 | 58.16712 | 53.88264 | 24982 ft | 447 kts | 103° |
| 2026-04-23 18:39 | 58.16017 | 53.93985 | 24378 ft | 443 kts | 103° |
| 2026-04-23 18:40 | 58.15337 | 53.99557 | 23815 ft | 438 kts | 103° |
| 2026-04-23 18:40 | 58.14713 | 54.04675 | 23374 ft | 432 kts | 103° |
| 2026-04-23 18:40 | 58.14038 | 54.10192 | 22718 ft | 428 kts | 103° |
| 2026-04-23 18:40 | 58.13370 | 54.15646 | 22103 ft | 423 kts | 103° |
| 2026-04-23 18:41 | 58.12707 | 54.21039 | 21517 ft | 418 kts | 103° |
| 2026-04-23 18:41 | 58.12048 | 54.26381 | 20918 ft | 414 kts | 104° |
| 2026-04-23 18:41 | 58.11394 | 54.31665 | 20341 ft | 410 kts | 104° |
| 2026-04-23 18:41 | 58.10744 | 54.36890 | 19758 ft | 407 kts | 104° |
| 2026-04-23 18:42 | 58.10096 | 54.42088 | 19190 ft | 404 kts | 104° |
| 2026-04-23 18:42 | 58.09451 | 54.47233 | 18618 ft | 401 kts | 104° |
| 2026-04-23 18:42 | 58.08810 | 54.52336 | 18058 ft | 398 kts | 104° |
| 2026-04-23 18:42 | 58.08170 | 54.57415 | 17445 ft | 395 kts | 105° |
| 2026-04-23 18:43 | 58.07532 | 54.62456 | 16844 ft | 392 kts | 105° |
| 2026-04-23 18:43 | 58.06900 | 54.67444 | 16280 ft | 389 kts | 105° |
| 2026-04-23 18:43 | 58.06278 | 54.72319 | 15726 ft | 386 kts | 105° |
| 2026-04-23 18:43 | 58.05716 | 54.77124 | 15160 ft | 384 kts | 98° |
| 2026-04-23 18:44 | 58.05847 | 54.82126 | 14604 ft | 383 kts | 78° |
| 2026-04-23 18:44 | 58.06447 | 54.87007 | 14068 ft | 380 kts | 77° |
| 2026-04-23 18:44 | 58.07054 | 54.91850 | 13521 ft | 378 kts | 77° |
| 2026-04-23 18:44 | 58.07654 | 54.96678 | 12927 ft | 376 kts | 77° |
| 2026-04-23 18:45 | 58.08226 | 55.01361 | 12365 ft | 374 kts | 77° |
| 2026-04-23 18:45 | 58.08801 | 55.06132 | 11811 ft | 371 kts | 77° |
| 2026-04-23 18:45 | 58.09363 | 55.10866 | 11278 ft | 368 kts | 78° |
| 2026-04-23 18:45 | 58.09917 | 55.15557 | 10752 ft | 365 kts | 78° |
| 2026-04-23 18:46 | 58.10460 | 55.20195 | 10511 ft | 354 kts | 78° |
| 2026-04-23 18:46 | 58.10981 | 55.24657 | 10343 ft | 342 kts | 78° |
| 2026-04-23 18:46 | 58.11484 | 55.28975 | 10201 ft | 331 kts | 78° |
| 2026-04-23 18:46 | 58.11968 | 55.33155 | 10052 ft | 320 kts | 78° |
| 2026-04-23 18:47 | 58.12437 | 55.37208 | 9931 ft | 310 kts | 78° |
| 2026-04-23 18:47 | 58.12891 | 55.41147 | 9803 ft | 302 kts | 78° |
| 2026-04-23 18:47 | 58.13330 | 55.44967 | 9676 ft | 293 kts | 78° |
| 2026-04-23 18:47 | 58.13757 | 55.48685 | 9499 ft | 287 kts | 78° |
| 2026-04-23 18:48 | 58.14179 | 55.52372 | 9199 ft | 285 kts | 78° |
| 2026-04-23 18:48 | 58.14592 | 55.55993 | 8918 ft | 283 kts | 78° |
| 2026-04-23 18:48 | 58.15004 | 55.59624 | 8637 ft | 281 kts | 78° |
| 2026-04-23 18:48 | 58.15385 | 55.63241 | 8386 ft | 278 kts | 85° |
| 2026-04-23 18:49 | 58.15418 | 55.66884 | 8115 ft | 276 kts | 94° |
| 2026-04-23 18:49 | 58.15298 | 55.70507 | 7850 ft | 275 kts | 95° |
| 2026-04-23 18:49 | 58.15159 | 55.74118 | 7582 ft | 275 kts | 96° |
| 2026-04-23 18:49 | 58.15026 | 55.77726 | 7327 ft | 275 kts | 95° |
| 2026-04-23 18:50 | 58.14943 | 55.80111 | 7158 ft | 275 kts | 95° |
| 2026-04-23 18:50 | 58.14787 | 55.84936 | 6817 ft | 274 kts | 95° |
| 2026-04-23 18:50 | 58.14676 | 55.88534 | 6565 ft | 273 kts | 95° |
| 2026-04-23 18:50 | 58.14568 | 55.92124 | 6313 ft | 273 kts | 95° |
| 2026-04-23 18:51 | 58.14462 | 55.95699 | 6061 ft | 271 kts | 95° |
| 2026-04-23 18:51 | 58.14356 | 55.99248 | 5800 ft | 270 kts | 95° |
| 2026-04-23 18:51 | 58.14254 | 56.02714 | 5539 ft | 269 kts | 95° |
| 2026-04-23 18:51 | 58.14150 | 56.06219 | 5273 ft | 267 kts | 95° |
| 2026-04-23 18:52 | 58.14044 | 56.09734 | 5009 ft | 266 kts | 94° |
| 2026-04-23 18:52 | 58.13939 | 56.13186 | 4902 ft | 259 kts | 94° |
| 2026-04-23 18:52 | 58.13820 | 56.16545 | 4828 ft | 252 kts | 99° |
| 2026-04-23 18:52 | 58.13168 | 56.19452 | 4732 ft | 239 kts | 130° |
| 2026-04-23 18:53 | 58.12064 | 56.21677 | 4679 ft | 226 kts | 138° |
| 2026-04-23 18:53 | 58.10934 | 56.23698 | 4393 ft | 222 kts | 139° |
| 2026-04-23 18:53 | 58.09848 | 56.25633 | 4324 ft | 207 kts | 139° |
| 2026-04-23 18:53 | 58.08841 | 56.27442 | 4265 ft | 192 kts | 139° |
| 2026-04-23 18:54 | 58.07905 | 56.29106 | 4242 ft | 176 kts | 143° |
| 2026-04-23 18:54 | 58.06862 | 56.29881 | 4200 ft | 152 kts | 183° |
| 2026-04-23 18:54 | 58.05841 | 56.29525 | 4070 ft | 153 kts | 212° |
| 2026-04-23 18:54 | 58.05062 | 56.28278 | 3905 ft | 145 kts | 222° |
| 2026-04-23 18:55 | 58.04319 | 56.27031 | 3724 ft | 141 kts | 225° |
| 2026-04-23 18:55 | 58.03627 | 56.25740 | 3539 ft | 139 kts | 227° |
| 2026-04-23 18:55 | 58.02946 | 56.24432 | 3350 ft | 139 kts | 227° |
| 2026-04-23 18:55 | 58.02281 | 56.23145 | 3175 ft | 139 kts | 227° |
| 2026-04-23 18:56 | 58.01825 | 56.22263 | 3044 ft | 139 kts | 227° |
| 2026-04-23 18:56 | 58.00937 | 56.20543 | 2804 ft | 138 kts | 227° |
| 2026-04-23 18:56 | 58.00269 | 56.19248 | 2618 ft | 138 kts | 227° |
| 2026-04-23 18:56 | 57.99605 | 56.17962 | 2440 ft | 137 kts | 227° |
| 2026-04-23 18:57 | 57.99398 | 56.17560 | 2382 ft | 137 kts | 227° |
| 2026-04-23 18:57 | 57.98774 | 56.16351 | 2209 ft | 136 kts | 227° |
| 2026-04-23 18:57 | 57.98116 | 56.15075 | 2028 ft | 136 kts | 227° |
| 2026-04-23 18:57 | 57.97457 | 56.13797 | 1849 ft | 135 kts | 227° |
| 2026-04-23 18:58 | 57.96800 | 56.12523 | 1675 ft | 136 kts | 227° |
| 2026-04-23 18:58 | 57.96142 | 56.11245 | 1487 ft | 135 kts | 227° |
| 2026-04-23 18:58 | 57.95498 | 56.09995 | 1299 ft | 136 kts | 227° |
| 2026-04-23 18:58 | 57.94829 | 56.08696 | 1120 ft | 139 kts | 226° |
| 2026-04-23 18:59 | 57.94160 | 56.07395 | 940 ft | 139 kts | 226° |
| 2026-04-23 18:59 | 57.93492 | 56.06083 | 763 ft | 139 kts | 226° |
| 2026-04-23 18:59 | 57.92812 | 56.04778 | 566 ft | 140 kts | 225° |
| 2026-04-23 18:59 | 57.92141 | 56.03481 | 415 ft | 132 kts | 225° |
| 2026-04-23 19:00 | 57.91568 | 56.02365 | 395 ft | 101 kts | 226° |
| 2026-04-23 19:00 | 57.91184 | 56.01616 | 397 ft | 58 kts | 225° |
| 2026-04-23 19:00 | 57.90994 | 56.01249 | 391 ft | 25 kts | 231° |
| 2026-04-23 19:00 | 57.90941 | 56.01102 | 392 ft | 9 kts | 172° |
| 2026-04-23 19:01 | 57.90952 | 56.01179 | 393 ft | 13 kts | 48° |
| 2026-04-23 19:01 | 57.91051 | 56.01388 | 394 ft | 22 kts | 48° |
| 2026-04-23 19:01 | 57.91140 | 56.01547 | 396 ft | 15 kts | 43° |
| 2026-04-23 19:01 | 57.91215 | 56.01683 | 395 ft | 17 kts | 44° |
| 2026-04-23 19:02 | 57.91282 | 56.01806 | 395 ft | 23 kts | 45° |
| 2026-04-23 19:02 | 57.91461 | 56.02155 | 397 ft | 29 kts | 46° |
| 2026-04-23 19:02 | 57.91580 | 56.02383 | 397 ft | 16 kts | 42° |
| 2026-04-23 19:02 | 57.91674 | 56.02480 | 397 ft | 16 kts | 346° |
| 2026-04-23 19:03 | 57.91763 | 56.02325 | 394 ft | 13 kts | 316° |
| 2026-04-23 19:03 | 57.91785 | 56.02194 | 395 ft | 15 kts | 235° |
| 2026-04-23 19:03 | 57.91759 | 56.02145 | 396 ft | 0 kts | 226° |